sensor_id;sensor_type;location;lat;lon;timestamp;pressure;altitude;pressure_sealevel;temperature;humidity
70909;BME280;58554;52.006;5.926;2023-07-16T19:30:19;100611.84;;;19.94;52.44
70909;BME280;58554;52.006;5.926;2023-07-16T19:32:46;100617.34;;;20.10;52.38
70909;BME280;58554;52.006;5.926;2023-07-16T19:35:14;100615.50;;;20.29;52.27
70909;BME280;58554;52.006;5.926;2023-07-16T19:37:41;100615.66;;;20.45;52.45
70909;BME280;58554;52.006;5.926;2023-07-16T19:40:08;100612.41;;;20.59;52.30
70909;BME280;58554;52.006;5.926;2023-07-16T19:42:35;100622.44;;;20.75;52.08
70909;BME280;58554;52.006;5.926;2023-07-16T19:45:02;100625.53;;;20.89;52.16
70909;BME280;58554;52.006;5.926;2023-07-16T19:49:58;100621.50;;;21.19;51.92
70909;BME280;58554;52.006;5.926;2023-07-16T19:52:25;100632.34;;;21.35;51.99
70909;BME280;58554;52.006;5.926;2023-07-16T19:54:51;100629.91;;;21.50;51.82
70909;BME280;58554;52.006;5.926;2023-07-16T19:57:18;100629.44;;;21.63;51.68
70909;BME280;58554;52.006;5.926;2023-07-16T19:59:44;100630.47;;;21.78;51.50
70909;BME280;58554;52.006;5.926;2023-07-16T20:02:11;100629.16;;;21.91;51.39
70909;BME280;58554;52.006;5.926;2023-07-16T20:04:40;100635.78;;;22.05;51.25
70909;BME280;58554;52.006;5.926;2023-07-16T20:07:07;100646.06;;;22.17;51.03
70909;BME280;58554;52.006;5.926;2023-07-16T20:09:34;100651.78;;;22.31;50.90
70909;BME280;58554;52.006;5.926;2023-07-16T20:12:01;100650.81;;;22.40;50.63
70909;BME280;58554;52.006;5.926;2023-07-16T20:14:27;100658.03;;;22.48;50.35
70909;BME280;58554;52.006;5.926;2023-07-16T20:16:54;100656.69;;;22.52;50.23
70909;BME280;58554;52.006;5.926;2023-07-16T20:19:20;100642.03;;;22.54;50.13
70909;BME280;58554;52.006;5.926;2023-07-16T20:21:50;100650.28;;;22.53;50.17
70909;BME280;58554;52.006;5.926;2023-07-16T20:24:16;100653.16;;;22.51;50.37
70909;BME280;58554;52.006;5.926;2023-07-16T20:26:43;100645.22;;;22.50;50.65
70909;BME280;58554;52.006;5.926;2023-07-16T20:29:09;100643.72;;;22.47;50.57
70909;BME280;58554;52.006;5.926;2023-07-16T20:31:36;100639.50;;;22.44;50.55
70909;BME280;58554;52.006;5.926;2023-07-16T20:34:02;100639.50;;;22.44;50.44
70909;BME280;58554;52.006;5.926;2023-07-16T20:36:29;100640.03;;;22.40;50.37
70909;BME280;58554;52.006;5.926;2023-07-16T20:38:58;100643.72;;;22.39;50.21
70909;BME280;58554;52.006;5.926;2023-07-16T20:41:24;100650.13;;;22.38;50.24
70909;BME280;58554;52.006;5.926;2023-07-16T20:43:51;100639.34;;;22.38;49.89
70909;BME280;58554;52.006;5.926;2023-07-16T20:46:17;100636.66;;;22.38;49.88
70909;BME280;58554;52.006;5.926;2023-07-16T20:48:44;100636.97;;;22.35;49.81
70909;BME280;58554;52.006;5.926;2023-07-16T20:51:11;100638.16;;;22.32;50.06
70909;BME280;58554;52.006;5.926;2023-07-16T20:53:37;100638.69;;;22.28;50.19
70909;BME280;58554;52.006;5.926;2023-07-16T20:56:08;100635.47;;;22.24;50.40
70909;BME280;58554;52.006;5.926;2023-07-16T20:58:35;100639.34;;;22.21;50.70
70909;BME280;58554;52.006;5.926;2023-07-16T21:01:02;100646.75;;;22.19;50.75
70909;BME280;58554;52.006;5.926;2023-07-16T21:03:28;100643.22;;;22.19;50.54
70909;BME280;58554;52.006;5.926;2023-07-16T21:05:55;100642.19;;;22.20;50.85
70909;BME280;58554;52.006;5.926;2023-07-16T21:08:21;100643.38;;;22.17;50.73
70909;BME280;58554;52.006;5.926;2023-07-16T21:10:48;100650.78;;;22.15;50.85
70909;BME280;58554;52.006;5.926;2023-07-16T21:13:17;100653.97;;;22.11;50.41
70909;BME280;58554;52.006;5.926;2023-07-16T21:15:44;100655.31;;;22.07;50.62
70909;BME280;58554;52.006;5.926;2023-07-16T21:18:10;100647.72;;;22.02;50.47
70909;BME280;58554;52.006;5.926;2023-07-16T21:20:37;100642.66;;;21.99;50.49
70909;BME280;58554;52.006;5.926;2023-07-16T21:23:04;100649.03;;;21.98;50.62
70909;BME280;58554;52.006;5.926;2023-07-16T21:25:30;100639.63;;;21.94;50.55
70909;BME280;58554;52.006;5.926;2023-07-16T21:28:01;100639.09;;;21.90;50.41
70909;BME280;58554;52.006;5.926;2023-07-16T21:30:32;100634.91;;;21.88;50.59
70909;BME280;58554;52.006;5.926;2023-07-16T21:32:59;100643.66;;;21.90;50.44
70909;BME280;58554;52.006;5.926;2023-07-16T21:35:26;100637.41;;;21.89;50.54
70909;BME280;58554;52.006;5.926;2023-07-16T21:37:52;100642.28;;;21.86;50.35
70909;BME280;58554;52.006;5.926;2023-07-16T21:40:19;100637.91;;;21.84;50.26
70909;BME280;58554;52.006;5.926;2023-07-16T21:42:46;100645.97;;;21.84;50.46
70909;BME280;58554;52.006;5.926;2023-07-16T21:45:13;100639.75;;;21.84;50.16
70909;BME280;58554;52.006;5.926;2023-07-16T21:47:42;100638.72;;;21.85;50.37
70909;BME280;58554;52.006;5.926;2023-07-16T21:50:10;100632.66;;;21.83;50.39
70909;BME280;58554;52.006;5.926;2023-07-16T21:52:39;100629.31;;;21.81;50.29
70909;BME280;58554;52.006;5.926;2023-07-16T21:55:08;100634.88;;;21.79;49.91
70909;BME280;58554;52.006;5.926;2023-07-16T21:57:35;100634.34;;;21.76;50.15
70909;BME280;58554;52.006;5.926;2023-07-16T22:00:03;100648.13;;;21.73;50.02
70909;BME280;58554;52.006;5.926;2023-07-16T22:02:31;100643.09;;;21.70;50.32
70909;BME280;58554;52.006;5.926;2023-07-16T22:05:01;100635.31;;;21.67;50.06
70909;BME280;58554;52.006;5.926;2023-07-16T22:07:28;100636.34;;;21.66;50.33
70909;BME280;58554;52.006;5.926;2023-07-16T22:09:55;100638.34;;;21.63;50.37
70909;BME280;58554;52.006;5.926;2023-07-16T22:12:21;100644.91;;;21.61;50.39
70909;BME280;58554;52.006;5.926;2023-07-16T22:14:48;100649.75;;;21.57;50.40
70909;BME280;58554;52.006;5.926;2023-07-16T22:17:14;100652.94;;;21.53;50.59
70909;BME280;58554;52.006;5.926;2023-07-16T22:19:41;100655.13;;;21.49;50.47
70909;BME280;58554;52.006;5.926;2023-07-16T22:22:10;100658.28;;;21.45;50.50
70909;BME280;58554;52.006;5.926;2023-07-16T22:24:37;100652.38;;;21.41;50.28
70909;BME280;58554;52.006;5.926;2023-07-16T22:27:04;100653.41;;;21.40;50.65
70909;BME280;58554;52.006;5.926;2023-07-16T22:29:31;100643.78;;;21.37;50.47
70909;BME280;58554;52.006;5.926;2023-07-16T22:31:58;100654.88;;;21.34;50.38
70909;BME280;58554;52.006;5.926;2023-07-16T22:34:24;100656.22;;;21.30;50.76
70909;BME280;58554;52.006;5.926;2023-07-16T22:36:51;100657.53;;;21.26;50.57
70909;BME280;58554;52.006;5.926;2023-07-16T22:39:20;100665.75;;;21.25;50.71
70909;BME280;58554;52.006;5.926;2023-07-16T22:41:46;100662.06;;;21.26;50.60
70909;BME280;58554;52.006;5.926;2023-07-16T22:44:13;100666.97;;;21.30;50.55
70909;BME280;58554;52.006;5.926;2023-07-16T22:46:39;100660.22;;;21.26;50.51
70909;BME280;58554;52.006;5.926;2023-07-16T22:49:06;100654.16;;;21.24;50.60
70909;BME280;58554;52.006;5.926;2023-07-16T22:51:33;100658.81;;;21.22;50.47
70909;BME280;58554;52.006;5.926;2023-07-16T22:53:59;100661.66;;;21.20;50.47
70909;BME280;58554;52.006;5.926;2023-07-16T22:56:29;100661.66;;;21.20;50.33
70909;BME280;58554;52.006;5.926;2023-07-16T22:58:55;100669.72;;;21.20;50.36
70909;BME280;58554;52.006;5.926;2023-07-16T23:01:22;100672.28;;;21.22;50.55
70909;BME280;58554;52.006;5.926;2023-07-16T23:03:48;100675.78;;;21.22;50.63
70909;BME280;58554;52.006;5.926;2023-07-16T23:06:15;100688.41;;;21.22;50.52
70909;BME280;58554;52.006;5.926;2023-07-16T23:08:41;100690.25;;;21.21;50.73
70909;BME280;58554;52.006;5.926;2023-07-16T23:11:08;100692.13;;;21.21;50.82
70909;BME280;58554;52.006;5.926;2023-07-16T23:13:37;100693.66;;;21.23;50.95
70909;BME280;58554;52.006;5.926;2023-07-16T23:16:05;100691.09;;;21.22;50.86
70909;BME280;58554;52.006;5.926;2023-07-16T23:18:31;100694.13;;;21.19;50.96
70909;BME280;58554;52.006;5.926;2023-07-16T23:20:58;100681.75;;;21.08;51.33
70909;BME280;58554;52.006;5.926;2023-07-16T23:23:24;100679.34;;;20.97;51.61
70909;BME280;58554;52.006;5.926;2023-07-16T23:25:51;100679.13;;;20.90;51.71
70909;BME280;58554;52.006;5.926;2023-07-16T23:28:18;100691.06;;;20.88;52.00
70909;BME280;58554;52.006;5.926;2023-07-16T23:30:47;100689.34;;;20.87;52.50
70909;BME280;58554;52.006;5.926;2023-07-16T23:33:13;100687.69;;;20.86;52.43
70909;BME280;58554;52.006;5.926;2023-07-16T23:35:40;100679.91;;;20.82;52.83
70909;BME280;58554;52.006;5.926;2023-07-16T23:38:07;100678.69;;;20.77;52.95
70909;BME280;58554;52.006;5.926;2023-07-16T23:40:33;100682.19;;;20.69;53.55
70909;BME280;58554;52.006;5.926;2023-07-16T23:43:00;100676.75;;;20.61;53.54
70909;BME280;58554;52.006;5.926;2023-07-16T23:45:27;100685.09;;;20.58;53.80
70909;BME280;58554;52.006;5.926;2023-07-16T23:47:56;100680.75;;;20.57;54.13
70909;BME280;58554;52.006;5.926;2023-07-16T23:50:23;100670.69;;;20.59;54.35
70909;BME280;58554;52.006;5.926;2023-07-16T23:52:49;100654.09;;;20.63;54.34
70909;BME280;58554;52.006;5.926;2023-07-16T23:55:16;100653.59;;;20.68;54.73
70909;BME280;58554;52.006;5.926;2023-07-16T23:57:42;100663.59;;;20.76;54.43
